sensor_id;sensor_type;location;lat;lon;timestamp;pressure;altitude;pressure_sealevel;temperature;humidity
41062;BME280;26812;42.662;23.352;2023-02-05T00:01:49;94968.19;;;-2.03;77.28
41062;BME280;26812;42.662;23.352;2023-02-05T00:04:15;94933.69;;;-2.42;78.54
41062;BME280;26812;42.662;23.352;2023-02-05T00:06:40;94951.63;;;-2.27;77.93
41062;BME280;26812;42.662;23.352;2023-02-05T00:09:06;94938.19;;;-2.54;78.03
41062;BME280;26812;42.662;23.352;2023-02-05T00:11:31;94949.78;;;-2.55;78.46
41062;BME280;26812;42.662;23.352;2023-02-05T00:13:56;94987.38;;;-2.36;78.15
41062;BME280;26812;42.662;23.352;2023-02-05T00:16:23;94972.28;;;-2.24;77.04
41062;BME280;26812;42.662;23.352;2023-02-05T00:18:50;94945.16;;;-2.36;75.66
41062;BME280;26812;42.662;23.352;2023-02-05T00:21:18;94972.03;;;-2.11;74.63
41062;BME280;26812;42.662;23.352;2023-02-05T00:23:44;94966.81;;;-2.34;74.51
41062;BME280;26812;42.662;23.352;2023-02-05T00:26:10;94972.66;;;-2.04;72.59
41062;BME280;26812;42.662;23.352;2023-02-05T00:28:37;94969.63;;;-1.96;73.12
41062;BME280;26812;42.662;23.352;2023-02-05T00:33:36;94972.59;;;-2.09;70.48
41062;BME280;26812;42.662;23.352;2023-02-05T00:36:01;94991.53;;;-2.12;70.79
41062;BME280;26812;42.662;23.352;2023-02-05T00:38:27;94965.81;;;-2.16;70.02
41062;BME280;26812;42.662;23.352;2023-02-05T00:40:52;94966.19;;;-2.13;69.40
41062;BME280;26812;42.662;23.352;2023-02-05T00:43:18;94980.72;;;-2.39;69.75
41062;BME280;26812;42.662;23.352;2023-02-05T00:45:43;94986.84;;;-2.22;70.14
41062;BME280;26812;42.662;23.352;2023-02-05T00:48:15;94984.34;;;-2.00;69.23
41062;BME280;26812;42.662;23.352;2023-02-05T00:50:40;95006.72;;;-2.31;70.28
41062;BME280;26812;42.662;23.352;2023-02-05T00:53:06;95013.28;;;-2.45;71.21
41062;BME280;26812;42.662;23.352;2023-02-05T00:55:31;94972.72;;;-2.56;71.99
41062;BME280;26812;42.662;23.352;2023-02-05T00:57:57;94993.81;;;-2.44;71.80
41062;BME280;26812;42.662;23.352;2023-02-05T01:00:22;94985.06;;;-2.33;71.96
41062;BME280;26812;42.662;23.352;2023-02-05T01:02:48;94969.47;;;-2.46;72.20
41062;BME280;26812;42.662;23.352;2023-02-05T01:05:13;94954.25;;;-2.56;72.66
41062;BME280;26812;42.662;23.352;2023-02-05T01:07:39;94992.41;;;-2.35;73.21
41062;BME280;26812;42.662;23.352;2023-02-05T01:10:05;94966.50;;;-2.38;72.64
41062;BME280;26812;42.662;23.352;2023-02-05T01:12:31;94965.34;;;-2.42;73.00
41062;BME280;26812;42.662;23.352;2023-02-05T01:14:59;94989.22;;;-2.48;72.70
41062;BME280;26812;42.662;23.352;2023-02-05T01:17:25;94988.06;;;-2.41;73.21
41062;BME280;26812;42.662;23.352;2023-02-05T01:19:51;95009.06;;;-2.46;73.43
41062;BME280;26812;42.662;23.352;2023-02-05T01:22:16;95000.38;;;-2.58;74.66
41062;BME280;26812;42.662;23.352;2023-02-05T01:24:41;94974.75;;;-2.98;75.22
41062;BME280;26812;42.662;23.352;2023-02-05T01:27:07;94977.16;;;-2.96;75.71
41062;BME280;26812;42.662;23.352;2023-02-05T01:29:32;94999.38;;;-2.81;75.87
41062;BME280;26812;42.662;23.352;2023-02-05T01:31:58;94996.75;;;-2.92;75.33
41062;BME280;26812;42.662;23.352;2023-02-05T01:34:23;94979.00;;;-3.20;74.67
41062;BME280;26812;42.662;23.352;2023-02-05T01:36:48;94975.00;;;-3.23;74.72
41062;BME280;26812;42.662;23.352;2023-02-05T01:39:14;94966.88;;;-3.33;74.48
41062;BME280;26812;42.662;23.352;2023-02-05T01:41:40;95015.22;;;-2.92;75.13
41062;BME280;26812;42.662;23.352;2023-02-05T01:46:33;95013.34;;;-2.68;73.73
41062;BME280;26812;42.662;23.352;2023-02-05T01:48:59;94998.00;;;-2.71;73.35
41062;BME280;26812;42.662;23.352;2023-02-05T01:51:28;95023.78;;;-2.62;73.33
41062;BME280;26812;42.662;23.352;2023-02-05T01:53:54;95029.06;;;-2.62;74.50
41062;BME280;26812;42.662;23.352;2023-02-05T01:56:42;94990.66;;;-2.81;74.16
41062;BME280;26812;42.662;23.352;2023-02-05T01:59:14;95007.53;;;-2.94;73.78
41062;BME280;26812;42.662;23.352;2023-02-05T02:01:40;95019.44;;;-2.79;74.65
41062;BME280;26812;42.662;23.352;2023-02-05T02:04:07;95033.03;;;-2.47;73.59
41062;BME280;26812;42.662;23.352;2023-02-05T02:06:34;95010.00;;;-2.52;73.22
41062;BME280;26812;42.662;23.352;2023-02-05T02:09:02;95011.84;;;-2.64;72.85
41062;BME280;26812;42.662;23.352;2023-02-05T02:11:32;95030.75;;;-2.56;73.01
41062;BME280;26812;42.662;23.352;2023-02-05T02:14:00;95002.28;;;-3.05;73.29
41062;BME280;26812;42.662;23.352;2023-02-05T02:16:31;95031.94;;;-2.87;73.32
41062;BME280;26812;42.662;23.352;2023-02-05T02:18:57;95001.47;;;-3.06;73.27
41062;BME280;26812;42.662;23.352;2023-02-05T02:22:04;95035.97;;;-2.72;72.56
41062;BME280;26812;42.662;23.352;2023-02-05T02:30:15;95042.59;;;-2.93;74.87
41062;BME280;26812;42.662;23.352;2023-02-05T02:33:06;95035.72;;;-3.18;74.69
41062;BME280;26812;42.662;23.352;2023-02-05T02:35:43;95045.59;;;-3.01;74.99
41062;BME280;26812;42.662;23.352;2023-02-05T02:38:29;95048.53;;;-3.09;74.34
41062;BME280;26812;42.662;23.352;2023-02-05T02:41:04;95049.03;;;-3.01;74.55
41062;BME280;26812;42.662;23.352;2023-02-05T02:44:18;95037.78;;;-2.96;74.04
41062;BME280;26812;42.662;23.352;2023-02-05T02:46:47;95019.56;;;-2.74;74.37
41062;BME280;26812;42.662;23.352;2023-02-05T02:49:25;95045.03;;;-3.03;74.17
41062;BME280;26812;42.662;23.352;2023-02-05T02:51:53;95049.91;;;-3.19;74.30
41062;BME280;26812;42.662;23.352;2023-02-05T02:54:20;95043.91;;;-3.37;75.83
41062;BME280;26812;42.662;23.352;2023-02-05T02:56:48;95050.50;;;-3.17;76.04
41062;BME280;26812;42.662;23.352;2023-02-05T02:59:17;95024.00;;;-3.45;75.81
41062;BME280;26812;42.662;23.352;2023-02-05T03:01:47;95044.22;;;-3.04;75.54
41062;BME280;26812;42.662;23.352;2023-02-05T03:04:17;95032.28;;;-3.18;75.21
41062;BME280;26812;42.662;23.352;2023-02-05T03:06:47;95014.94;;;-3.61;75.37
41062;BME280;26812;42.662;23.352;2023-02-05T03:09:33;95032.13;;;-3.47;75.91
41062;BME280;26812;42.662;23.352;2023-02-05T03:12:02;95075.59;;;-3.14;75.11
41062;BME280;26812;42.662;23.352;2023-02-05T03:14:28;95051.34;;;-3.58;75.87
41062;BME280;26812;42.662;23.352;2023-02-05T03:16:55;95059.59;;;-3.54;76.21
41062;BME280;26812;42.662;23.352;2023-02-05T03:19:21;95091.63;;;-3.27;75.71
41062;BME280;26812;42.662;23.352;2023-02-05T03:21:50;95059.34;;;-3.64;75.67
41062;BME280;26812;42.662;23.352;2023-02-05T03:24:18;95079.06;;;-3.44;75.58
41062;BME280;26812;42.662;23.352;2023-02-05T03:26:44;95078.38;;;-3.51;75.16
41062;BME280;26812;42.662;23.352;2023-02-05T03:29:15;95082.59;;;-3.61;75.76
41062;BME280;26812;42.662;23.352;2023-02-05T03:32:04;95081.78;;;-3.62;75.58
41062;BME280;26812;42.662;23.352;2023-02-05T03:37:39;95099.63;;;-3.34;76.52
41062;BME280;26812;42.662;23.352;2023-02-05T03:46:20;95087.19;;;-3.57;76.61
41062;BME280;26812;42.662;23.352;2023-02-05T03:49:00;95090.75;;;-3.51;76.57
41062;BME280;26812;42.662;23.352;2023-02-05T03:57:25;95086.28;;;-3.81;75.71
41062;BME280;26812;42.662;23.352;2023-02-05T03:59:49;95075.22;;;-3.71;76.72
41062;BME280;26812;42.662;23.352;2023-02-05T04:02:16;95106.44;;;-3.45;75.69
41062;BME280;26812;42.662;23.352;2023-02-05T04:04:42;95102.06;;;-3.62;76.15
41062;BME280;26812;42.662;23.352;2023-02-05T04:07:08;95098.78;;;-3.76;76.61
41062;BME280;26812;42.662;23.352;2023-02-05T04:09:33;95091.44;;;-3.86;76.00
41062;BME280;26812;42.662;23.352;2023-02-05T04:11:59;95081.69;;;-3.85;76.50
41062;BME280;26812;42.662;23.352;2023-02-05T04:14:24;95087.78;;;-4.03;76.15
41062;BME280;26812;42.662;23.352;2023-02-05T04:16:50;95119.53;;;-3.68;77.18
41062;BME280;26812;42.662;23.352;2023-02-05T04:19:16;95111.06;;;-3.70;77.31
41062;BME280;26812;42.662;23.352;2023-02-05T04:21:48;95093.28;;;-3.75;77.09
41062;BME280;26812;42.662;23.352;2023-02-05T04:24:13;95111.69;;;-3.86;76.94
41062;BME280;26812;42.662;23.352;2023-02-05T04:26:38;95111.81;;;-3.99;77.95
41062;BME280;26812;42.662;23.352;2023-02-05T04:29:04;95111.91;;;-4.06;78.03
41062;BME280;26812;42.662;23.352;2023-02-05T04:31:29;95030.03;;;-4.46;77.87
41062;BME280;26812;42.662;23.352;2023-02-05T04:33:54;95024.78;;;-4.64;77.69
41062;BME280;26812;42.662;23.352;2023-02-05T04:36:20;95112.81;;;-4.12;77.74
41062;BME280;26812;42.662;23.352;2023-02-05T04:38:45;95094.22;;;-3.99;77.72
41062;BME280;26812;42.662;23.352;2023-02-05T04:41:11;95120.03;;;-3.89;77.47
41062;BME280;26812;42.662;23.352;2023-02-05T04:43:36;95108.59;;;-3.83;77.40
41062;BME280;26812;42.662;23.352;2023-02-05T04:46:09;95134.63;;;-3.75;77.48
41062;BME280;26812;42.662;23.352;2023-02-05T04:48:35;95110.38;;;-3.95;77.93
41062;BME280;26812;42.662;23.352;2023-02-05T04:51:08;95132.38;;;-3.90;78.12
41062;BME280;26812;42.662;23.352;2023-02-05T04:53:34;95107.25;;;-4.22;78.54
41062;BME280;26812;42.662;23.352;2023-02-05T04:58:32;95110.97;;;-4.30;78.87
41062;BME280;26812;42.662;23.352;2023-02-05T05:00:57;95142.59;;;-4.00;79.06
41062;BME280;26812;42.662;23.352;2023-02-05T05:03:23;95146.34;;;-3.89;79.16
41062;BME280;26812;42.662;23.352;2023-02-05T05:05:48;95116.97;;;-4.23;78.81
41062;BME280;26812;42.662;23.352;2023-02-05T05:08:13;95158.19;;;-3.98;78.42
41062;BME280;26812;42.662;23.352;2023-02-05T05:10:39;95159.19;;;-3.99;78.73
41062;BME280;26812;42.662;23.352;2023-02-05T05:13:04;95143.28;;;-4.04;79.23
41062;BME280;26812;42.662;23.352;2023-02-05T05:15:30;95122.22;;;-4.41;79.08
41062;BME280;26812;42.662;23.352;2023-02-05T05:17:55;95160.22;;;-4.00;79.25
41062;BME280;26812;42.662;23.352;2023-02-05T05:20:20;95140.19;;;-4.01;78.78
41062;BME280;26812;42.662;23.352;2023-02-05T05:22:46;95158.00;;;-3.97;78.29
41062;BME280;26812;42.662;23.352;2023-02-05T05:25:11;95137.34;;;-4.00;78.75
41062;BME280;26812;42.662;23.352;2023-02-05T05:27:37;95143.00;;;-3.96;78.19
41062;BME280;26812;42.662;23.352;2023-02-05T05:30:02;95168.22;;;-3.89;78.40
41062;BME280;26812;42.662;23.352;2023-02-05T05:32:28;95186.13;;;-3.97;78.25
41062;BME280;26812;42.662;23.352;2023-02-05T05:34:53;95165.09;;;-3.97;77.79
41062;BME280;26812;42.662;23.352;2023-02-05T05:37:21;95182.88;;;-3.99;77.89
41062;BME280;26812;42.662;23.352;2023-02-05T05:39:46;95178.06;;;-4.02;78.49
41062;BME280;26812;42.662;23.352;2023-02-05T05:42:30;95178.75;;;-3.89;78.17
41062;BME280;26812;42.662;23.352;2023-02-05T05:45:14;95194.00;;;-3.79;78.11
41062;BME280;26812;42.662;23.352;2023-02-05T05:47:40;95188.31;;;-3.76;77.68
41062;BME280;26812;42.662;23.352;2023-02-05T05:50:05;95195.41;;;-3.77;78.19
41062;BME280;26812;42.662;23.352;2023-02-05T05:52:31;95201.56;;;-3.64;77.74
41062;BME280;26812;42.662;23.352;2023-02-05T05:54:56;95202.34;;;-3.82;77.87
41062;BME280;26812;42.662;23.352;2023-02-05T05:57:22;95207.03;;;-4.02;78.20
41062;BME280;26812;42.662;23.352;2023-02-05T05:59:47;95210.19;;;-3.94;77.93
41062;BME280;26812;42.662;23.352;2023-02-05T06:02:12;95151.59;;;-4.44;78.30
41062;BME280;26812;42.662;23.352;2023-02-05T06:04:38;95214.44;;;-3.93;78.73
41062;BME280;26812;42.662;23.352;2023-02-05T06:07:03;95217.03;;;-3.75;77.84
41062;BME280;26812;42.662;23.352;2023-02-05T06:09:29;95225.53;;;-3.91;78.43
41062;BME280;26812;42.662;23.352;2023-02-05T06:11:54;95187.75;;;-3.96;77.68
41062;BME280;26812;42.662;23.352;2023-02-05T06:14:19;95209.06;;;-3.68;77.39
41062;BME280;26812;42.662;23.352;2023-02-05T06:16:45;95215.22;;;-3.74;76.92
41062;BME280;26812;42.662;23.352;2023-02-05T06:19:10;95217.72;;;-3.61;76.46
41062;BME280;26812;42.662;23.352;2023-02-05T06:21:36;95223.28;;;-3.39;76.48
41062;BME280;26812;42.662;23.352;2023-02-05T06:24:01;95202.56;;;-3.65;76.10
41062;BME280;26812;42.662;23.352;2023-02-05T06:26:26;95193.34;;;-4.11;76.74
41062;BME280;26812;42.662;23.352;2023-02-05T06:28:52;95255.59;;;-3.80;77.44
41062;BME280;26812;42.662;23.352;2023-02-05T06:31:17;95256.28;;;-3.66;77.21
41062;BME280;26812;42.662;23.352;2023-02-05T06:33:43;95242.28;;;-3.67;77.03
41062;BME280;26812;42.662;23.352;2023-02-05T06:36:08;95262.41;;;-3.54;76.59
41062;BME280;26812;42.662;23.352;2023-02-05T06:38:34;95256.91;;;-3.71;77.00
41062;BME280;26812;42.662;23.352;2023-02-05T06:40:59;95270.88;;;-3.70;77.28
41062;BME280;26812;42.662;23.352;2023-02-05T06:43:25;95261.50;;;-3.85;77.00
41062;BME280;26812;42.662;23.352;2023-02-05T06:45:50;95279.31;;;-3.62;76.95
41062;BME280;26812;42.662;23.352;2023-02-05T06:48:16;95279.09;;;-3.60;76.58
41062;BME280;26812;42.662;23.352;2023-02-05T06:50:42;95285.88;;;-3.53;76.18
41062;BME280;26812;42.662;23.352;2023-02-05T06:53:08;95271.53;;;-3.57;76.04
41062;BME280;26812;42.662;23.352;2023-02-05T06:55:33;95284.63;;;-3.50;75.58
41062;BME280;26812;42.662;23.352;2023-02-05T06:57:58;95286.25;;;-3.49;75.94
41062;BME280;26812;42.662;23.352;2023-02-05T07:00:24;95259.41;;;-3.76;75.86
41062;BME280;26812;42.662;23.352;2023-02-05T07:02:49;95278.56;;;-3.51;74.88
41062;BME280;26812;42.662;23.352;2023-02-05T07:05:15;95282.72;;;-3.43;75.25
41062;BME280;26812;42.662;23.352;2023-02-05T07:07:40;95297.66;;;-3.37;75.71
41062;BME280;26812;42.662;23.352;2023-02-05T07:10:06;95288.75;;;-3.36;74.79
41062;BME280;26812;42.662;23.352;2023-02-05T07:12:32;95301.59;;;-3.46;74.39
41062;BME280;26812;42.662;23.352;2023-02-05T07:14:57;95277.41;;;-3.55;74.63
41062;BME280;26812;42.662;23.352;2023-02-05T07:17:22;95296.69;;;-3.06;74.23
41062;BME280;26812;42.662;23.352;2023-02-05T07:19:48;95297.00;;;-2.84;73.87
41062;BME280;26812;42.662;23.352;2023-02-05T07:22:13;95299.38;;;-2.64;72.33
41062;BME280;26812;42.662;23.352;2023-02-05T07:24:39;95284.16;;;-2.81;72.16
41062;BME280;26812;42.662;23.352;2023-02-05T07:27:04;95318.03;;;-2.36;71.04
41062;BME280;26812;42.662;23.352;2023-02-05T07:29:30;95323.66;;;-2.32;71.19
41062;BME280;26812;42.662;23.352;2023-02-05T07:31:55;95315.28;;;-2.41;71.08
41062;BME280;26812;42.662;23.352;2023-02-05T07:34:21;95310.28;;;-2.61;71.04
41062;BME280;26812;42.662;23.352;2023-02-05T07:36:52;95326.91;;;-2.48;71.39
41062;BME280;26812;42.662;23.352;2023-02-05T07:39:18;95314.59;;;-2.66;71.49
41062;BME280;26812;42.662;23.352;2023-02-05T07:41:44;95326.88;;;-2.30;71.28
41062;BME280;26812;42.662;23.352;2023-02-05T07:44:09;95296.66;;;-2.76;72.41
41062;BME280;26812;42.662;23.352;2023-02-05T07:46:35;95328.72;;;-2.61;72.66
41062;BME280;26812;42.662;23.352;2023-02-05T07:49:00;95299.25;;;-2.69;72.69
41062;BME280;26812;42.662;23.352;2023-02-05T07:51:25;95335.91;;;-2.38;71.63
41062;BME280;26812;42.662;23.352;2023-02-05T07:53:51;95340.56;;;-2.52;72.45
41062;BME280;26812;42.662;23.352;2023-02-05T07:56:17;95336.03;;;-2.44;72.33
41062;BME280;26812;42.662;23.352;2023-02-05T07:58:46;95322.19;;;-2.58;72.34
41062;BME280;26812;42.662;23.352;2023-02-05T08:01:11;95342.25;;;-2.27;73.20
41062;BME280;26812;42.662;23.352;2023-02-05T08:03:37;95353.63;;;-2.27;72.98
41062;BME280;26812;42.662;23.352;2023-02-05T08:06:04;95347.63;;;-2.34;72.15
41062;BME280;26812;42.662;23.352;2023-02-05T08:08:29;95338.22;;;-2.30;71.91
41062;BME280;26812;42.662;23.352;2023-02-05T08:10:57;95358.16;;;-1.92;72.65
41062;BME280;26812;42.662;23.352;2023-02-05T08:13:23;95346.25;;;-1.83;70.18
41062;BME280;26812;42.662;23.352;2023-02-05T08:15:49;95341.75;;;-1.71;70.33
41062;BME280;26812;42.662;23.352;2023-02-05T08:18:14;95361.03;;;-1.59;69.38
41062;BME280;26812;42.662;23.352;2023-02-05T08:20:39;95364.97;;;-1.49;69.38
41062;BME280;26812;42.662;23.352;2023-02-05T08:23:05;95359.88;;;-1.16;67.26
41062;BME280;26812;42.662;23.352;2023-02-05T08:25:30;95363.88;;;-1.02;67.16
41062;BME280;26812;42.662;23.352;2023-02-05T08:27:55;95336.41;;;-0.60;67.03
41062;BME280;26812;42.662;23.352;2023-02-05T08:30:21;95349.06;;;-0.17;64.31
41062;BME280;26812;42.662;23.352;2023-02-05T08:32:49;95346.78;;;0.37;62.82
41062;BME280;26812;42.662;23.352;2023-02-05T08:35:15;95380.22;;;0.76;59.96
41062;BME280;26812;42.662;23.352;2023-02-05T08:37:40;95371.16;;;0.55;59.38
41062;BME280;26812;42.662;23.352;2023-02-05T08:40:06;95374.31;;;0.52;58.36
41062;BME280;26812;42.662;23.352;2023-02-05T08:42:31;95366.59;;;0.68;57.72
41062;BME280;26812;42.662;23.352;2023-02-05T08:44:57;95348.34;;;-0.13;59.09
41062;BME280;26812;42.662;23.352;2023-02-05T08:47:24;95365.72;;;-0.62;58.03
41062;BME280;26812;42.662;23.352;2023-02-05T08:49:49;95382.34;;;0.07;59.00
41062;BME280;26812;42.662;23.352;2023-02-05T08:52:15;95364.34;;;0.43;56.13
41062;BME280;26812;42.662;23.352;2023-02-05T08:54:41;95322.50;;;-0.06;55.48
41062;BME280;26812;42.662;23.352;2023-02-05T08:57:07;95380.81;;;0.61;56.69
41062;BME280;26812;42.662;23.352;2023-02-05T08:59:32;95381.00;;;1.15;53.45
41062;BME280;26812;42.662;23.352;2023-02-05T09:01:58;95380.22;;;0.59;52.83
41062;BME280;26812;42.662;23.352;2023-02-05T09:04:23;95383.13;;;0.75;54.41
41062;BME280;26812;42.662;23.352;2023-02-05T09:06:49;95380.91;;;0.33;53.57
41062;BME280;26812;42.662;23.352;2023-02-05T09:09:15;95398.81;;;-0.19;55.71
41062;BME280;26812;42.662;23.352;2023-02-05T09:11:41;95405.63;;;0.72;56.13
41062;BME280;26812;42.662;23.352;2023-02-05T09:14:07;95404.34;;;1.13;55.39
41062;BME280;26812;42.662;23.352;2023-02-05T09:16:36;95395.03;;;1.11;51.69
41062;BME280;26812;42.662;23.352;2023-02-05T09:19:02;95417.41;;;1.37;51.73
41062;BME280;26812;42.662;23.352;2023-02-05T09:21:27;95399.66;;;1.20;51.91
41062;BME280;26812;42.662;23.352;2023-02-05T09:23:53;95414.72;;;1.80;50.05
41062;BME280;26812;42.662;23.352;2023-02-05T09:26:19;95381.06;;;1.86;48.82
41062;BME280;26812;42.662;23.352;2023-02-05T09:28:44;95396.41;;;2.38;48.26
41062;BME280;26812;42.662;23.352;2023-02-05T09:31:15;95419.28;;;2.39;46.87
41062;BME280;26812;42.662;23.352;2023-02-05T09:33:41;95394.31;;;1.59;49.57
41062;BME280;26812;42.662;23.352;2023-02-05T09:36:09;95427.63;;;2.21;47.25
41062;BME280;26812;42.662;23.352;2023-02-05T09:38:37;95424.84;;;2.37;47.43
41062;BME280;26812;42.662;23.352;2023-02-05T09:46:49;95428.81;;;2.35;46.91
41062;BME280;26812;42.662;23.352;2023-02-05T09:49:19;95430.91;;;1.79;46.35
41062;BME280;26812;42.662;23.352;2023-02-05T09:51:51;95431.34;;;1.49;48.07
41062;BME280;26812;42.662;23.352;2023-02-05T09:54:29;95425.72;;;1.23;48.21
41062;BME280;26812;42.662;23.352;2023-02-05T09:57:03;95373.09;;;0.60;48.37
41062;BME280;26812;42.662;23.352;2023-02-05T09:59:30;95434.81;;;0.39;49.33
41062;BME280;26812;42.662;23.352;2023-02-05T10:02:02;95429.25;;;0.57;50.96
41062;BME280;26812;42.662;23.352;2023-02-05T10:04:41;95422.16;;;0.96;50.58
41062;BME280;26812;42.662;23.352;2023-02-05T10:07:15;95433.91;;;1.00;49.85
41062;BME280;26812;42.662;23.352;2023-02-05T10:12:57;95424.28;;;1.16;48.14
41062;BME280;26812;42.662;23.352;2023-02-05T10:23:47;95432.59;;;0.19;51.44
41062;BME280;26812;42.662;23.352;2023-02-05T10:26:13;95431.09;;;0.40;52.01
41062;BME280;26812;42.662;23.352;2023-02-05T10:31:39;95436.31;;;0.51;49.52
41062;BME280;26812;42.662;23.352;2023-02-05T10:36:37;95424.78;;;-0.73;53.48
41062;BME280;26812;42.662;23.352;2023-02-05T10:39:12;95442.31;;;0.13;51.54
41062;BME280;26812;42.662;23.352;2023-02-05T10:41:42;95414.84;;;0.19;49.40
41062;BME280;26812;42.662;23.352;2023-02-05T10:46:53;95412.47;;;0.51;48.49
41062;BME280;26812;42.662;23.352;2023-02-05T10:49:25;95419.28;;;0.47;48.26
41062;BME280;26812;42.662;23.352;2023-02-05T10:51:54;95432.78;;;0.29;48.60
41062;BME280;26812;42.662;23.352;2023-02-05T10:54:26;95400.91;;;-0.21;50.10
41062;BME280;26812;42.662;23.352;2023-02-05T10:56:53;95432.53;;;-0.15;50.13
41062;BME280;26812;42.662;23.352;2023-02-05T10:59:30;95428.81;;;0.15;50.16
41062;BME280;26812;42.662;23.352;2023-02-05T11:02:04;95438.63;;;0.14;48.75
41062;BME280;26812;42.662;23.352;2023-02-05T11:04:54;95430.75;;;0.03;48.87
41062;BME280;26812;42.662;23.352;2023-02-05T11:07:51;95428.19;;;0.08;50.72
41062;BME280;26812;42.662;23.352;2023-02-05T11:10:24;95447.16;;;0.50;51.39
41062;BME280;26812;42.662;23.352;2023-02-05T11:12:56;95384.81;;;-0.32;51.33
41062;BME280;26812;42.662;23.352;2023-02-05T11:15:24;95441.00;;;-0.01;50.78
41062;BME280;26812;42.662;23.352;2023-02-05T11:17:57;95441.19;;;0.26;50.13
41062;BME280;26812;42.662;23.352;2023-02-05T11:20:53;95439.63;;;0.58;47.70
41062;BME280;26812;42.662;23.352;2023-02-05T11:23:24;95448.22;;;0.49;46.48
41062;BME280;26812;42.662;23.352;2023-02-05T11:28:25;95444.03;;;0.53;46.34
41062;BME280;26812;42.662;23.352;2023-02-05T11:30:51;95446.28;;;0.44;45.92
41062;BME280;26812;42.662;23.352;2023-02-05T11:33:24;95451.91;;;0.48;46.79
41062;BME280;26812;42.662;23.352;2023-02-05T11:36:03;95448.00;;;0.67;46.78
41062;BME280;26812;42.662;23.352;2023-02-05T11:41:09;95444.94;;;0.75;45.54
41062;BME280;26812;42.662;23.352;2023-02-05T11:43:50;95448.88;;;0.39;45.23
41062;BME280;26812;42.662;23.352;2023-02-05T11:46:18;95430.19;;;0.17;46.08
41062;BME280;26812;42.662;23.352;2023-02-05T11:49:17;95442.69;;;0.67;44.58
41062;BME280;26812;42.662;23.352;2023-02-05T11:51:44;95436.88;;;0.87;43.38
41062;BME280;26812;42.662;23.352;2023-02-05T11:54:29;95429.28;;;1.12;43.40
41062;BME280;26812;42.662;23.352;2023-02-05T11:59:26;95435.84;;;2.19;40.78
41062;BME280;26812;42.662;23.352;2023-02-05T12:01:51;95421.84;;;2.61;39.86
41062;BME280;26812;42.662;23.352;2023-02-05T12:04:19;95436.78;;;2.99;40.06
41062;BME280;26812;42.662;23.352;2023-02-05T12:06:52;95426.28;;;3.24;39.16
41062;BME280;26812;42.662;23.352;2023-02-05T12:09:21;95421.44;;;3.16;39.38
41062;BME280;26812;42.662;23.352;2023-02-05T12:12:22;95433.06;;;3.00;40.92
41062;BME280;26812;42.662;23.352;2023-02-05T12:20:36;95426.91;;;2.94;40.14
41062;BME280;26812;42.662;23.352;2023-02-05T12:23:29;95429.09;;;2.70;40.69
41062;BME280;26812;42.662;23.352;2023-02-05T12:31:32;95418.59;;;2.86;41.31
41062;BME280;26812;42.662;23.352;2023-02-05T12:58:08;95439.09;;;0.11;57.44
41062;BME280;26812;42.662;23.352;2023-02-05T13:00:46;95433.66;;;0.18;58.46
41062;BME280;26812;42.662;23.352;2023-02-05T13:03:34;95436.66;;;-0.07;60.32
41062;BME280;26812;42.662;23.352;2023-02-05T13:06:09;95432.78;;;-0.16;60.71
41062;BME280;26812;42.662;23.352;2023-02-05T13:08:41;95445.97;;;-0.05;60.72
41062;BME280;26812;42.662;23.352;2023-02-05T13:11:15;95423.22;;;-0.46;61.73
41062;BME280;26812;42.662;23.352;2023-02-05T13:13:55;95436.16;;;-0.04;62.50
41062;BME280;26812;42.662;23.352;2023-02-05T13:16:32;95444.56;;;-0.24;62.29
41062;BME280;26812;42.662;23.352;2023-02-05T13:19:09;95440.88;;;-0.35;63.51
41062;BME280;26812;42.662;23.352;2023-02-05T13:21:39;95414.47;;;-0.18;62.92
41062;BME280;26812;42.662;23.352;2023-02-05T13:24:29;95442.56;;;0.28;60.20
41062;BME280;26812;42.662;23.352;2023-02-05T13:27:23;95440.91;;;0.39;58.28
41062;BME280;26812;42.662;23.352;2023-02-05T13:30:15;95428.13;;;0.53;57.53
41062;BME280;26812;42.662;23.352;2023-02-05T13:32:47;95437.88;;;0.64;55.47
41062;BME280;26812;42.662;23.352;2023-02-05T13:35:14;95440.44;;;0.76;54.76
41062;BME280;26812;42.662;23.352;2023-02-05T13:37:50;95431.91;;;0.74;55.04
41062;BME280;26812;42.662;23.352;2023-02-05T13:40:52;95442.59;;;0.79;54.61
41062;BME280;26812;42.662;23.352;2023-02-05T13:59:48;95446.56;;;0.14;52.11
41062;BME280;26812;42.662;23.352;2023-02-05T14:02:41;95446.53;;;-0.03;52.26
41062;BME280;26812;42.662;23.352;2023-02-05T14:05:07;95456.13;;;-0.13;55.49
41062;BME280;26812;42.662;23.352;2023-02-05T14:07:46;95403.22;;;-0.65;57.92
41062;BME280;26812;42.662;23.352;2023-02-05T14:12:48;95401.13;;;-0.91;60.19
41062;BME280;26812;42.662;23.352;2023-02-05T14:20:30;95461.25;;;-1.45;63.83
41062;BME280;26812;42.662;23.352;2023-02-05T14:23:00;95421.00;;;-1.71;63.76
41062;BME280;26812;42.662;23.352;2023-02-05T14:31:07;95468.50;;;-1.29;62.98
41062;BME280;26812;42.662;23.352;2023-02-05T14:33:39;95467.94;;;-1.31;62.08
41062;BME280;26812;42.662;23.352;2023-02-05T14:39:04;95443.53;;;-2.40;63.03
41062;BME280;26812;42.662;23.352;2023-02-05T14:44:25;95466.31;;;-2.45;65.29
41062;BME280;26812;42.662;23.352;2023-02-05T14:49:38;95413.63;;;-1.92;63.04
41062;BME280;26812;42.662;23.352;2023-02-05T14:54:55;95469.94;;;-1.80;62.38
41062;BME280;26812;42.662;23.352;2023-02-05T14:57:45;95467.78;;;-2.50;63.16
41062;BME280;26812;42.662;23.352;2023-02-05T15:13:14;95486.44;;;-1.84;63.90
41062;BME280;26812;42.662;23.352;2023-02-05T15:15:39;95473.19;;;-1.96;63.21
41062;BME280;26812;42.662;23.352;2023-02-05T15:18:27;95487.25;;;-2.14;64.42
41062;BME280;26812;42.662;23.352;2023-02-05T15:20:55;95509.78;;;-2.48;66.48
41062;BME280;26812;42.662;23.352;2023-02-05T15:26:03;95511.50;;;-2.72;68.93
41062;BME280;26812;42.662;23.352;2023-02-05T15:28:41;95511.34;;;-3.20;70.71
41062;BME280;26812;42.662;23.352;2023-02-05T15:31:31;95516.81;;;-3.47;73.24
41062;BME280;26812;42.662;23.352;2023-02-05T15:37:20;95515.06;;;-3.28;74.11
41062;BME280;26812;42.662;23.352;2023-02-05T15:42:31;95515.88;;;-3.27;73.65
41062;BME280;26812;42.662;23.352;2023-02-05T15:44:58;95492.03;;;-3.39;74.37